createdAt,value
2023-04-11T00:01:33.019Z,21.20
2023-04-11T00:04:01.411Z,18.20
2023-04-11T00:06:29.690Z,20.20
2023-04-11T00:08:58.240Z,20.90
2023-04-11T00:11:26.649Z,17.90
2023-04-11T00:13:58.878Z,20.90
2023-04-11T00:16:27.342Z,18.60
2023-04-11T00:18:57.470Z,18.10
2023-04-11T00:21:26.213Z,21.40
2023-04-11T00:23:54.811Z,21.90
2023-04-11T00:26:22.868Z,23.90
2023-04-11T00:28:51.177Z,22.10
2023-04-11T00:31:19.567Z,28.90
2023-04-11T00:33:47.662Z,52.20
2023-04-11T00:36:16.584Z,85.20
2023-04-11T00:38:46.717Z,41.90
2023-04-11T00:41:14.903Z,29.80
2023-04-11T00:43:43.098Z,26.00
2023-04-11T00:46:11.434Z,23.30
2023-04-11T00:48:40.238Z,20.00
2023-04-11T00:51:08.518Z,21.70
2023-04-11T00:53:38.291Z,21.80
2023-04-11T00:56:07.139Z,19.20
2023-04-11T00:58:38.133Z,22.50
2023-04-11T01:01:09.302Z,20.30
2023-04-11T01:03:41.515Z,18.10
2023-04-11T01:06:13.137Z,16.20
2023-04-11T01:08:43.675Z,16.00
2023-04-11T01:11:12.881Z,16.50
2023-04-11T01:13:42.362Z,16.10
2023-04-11T01:16:11.461Z,16.10
2023-04-11T01:18:39.758Z,15.40
2023-04-11T01:21:10.136Z,13.90
2023-04-11T01:23:38.463Z,15.90
2023-04-11T01:26:07.683Z,14.70
2023-04-11T01:28:36.053Z,15.10
2023-04-11T01:31:05.042Z,14.80
2023-04-11T01:33:33.344Z,15.20
2023-04-11T01:36:01.660Z,16.70
2023-04-11T01:38:29.977Z,18.30
2023-04-11T01:40:59.230Z,18.80
2023-04-11T01:43:27.445Z,19.20
2023-04-11T01:45:55.918Z,19.20
2023-04-11T01:48:24.237Z,18.60
2023-04-11T01:50:53.355Z,20.90
2023-04-11T01:53:21.732Z,26.80
2023-04-11T01:55:49.951Z,36.90
2023-04-11T01:58:18.091Z,18.40
2023-04-11T02:00:46.523Z,16.40
2023-04-11T02:03:14.963Z,19.70
2023-04-11T02:05:43.801Z,17.50
2023-04-11T02:08:12.594Z,21.90
2023-04-11T02:10:40.860Z,19.70
2023-04-11T02:13:09.763Z,14.50
2023-04-11T02:15:38.019Z,19.60
2023-04-11T02:18:07.236Z,19.80
2023-04-11T02:20:40.710Z,23.30
2023-04-11T02:23:09.012Z,26.00
2023-04-11T02:25:39.059Z,26.50
2023-04-11T02:28:08.205Z,34.70
2023-04-11T02:30:36.773Z,21.00
2023-04-11T02:33:05.100Z,21.70
2023-04-11T02:35:34.736Z,22.30
2023-04-11T02:38:02.887Z,26.10
2023-04-11T02:40:31.671Z,18.90
2023-04-11T02:43:01.328Z,18.10
2023-04-11T02:45:31.100Z,17.50
2023-04-11T02:47:59.284Z,20.90
2023-04-11T02:50:27.887Z,26.70
2023-04-11T02:52:56.237Z,26.10
2023-04-11T02:55:27.251Z,24.10
2023-04-11T02:57:55.663Z,25.10
2023-04-11T03:00:25.186Z,31.50
2023-04-11T03:03:02.873Z,31.20
2023-04-11T03:05:31.769Z,30.10
2023-04-11T03:07:59.832Z,29.40
2023-04-11T03:10:29.315Z,32.30
2023-04-11T03:12:57.722Z,33.20
2023-04-11T03:15:27.125Z,37.10
2023-04-11T03:17:56.195Z,48.80
2023-04-11T03:20:25.011Z,45.20
2023-04-11T03:22:54.558Z,40.20
2023-04-11T03:25:22.818Z,43.10
2023-04-11T03:27:51.898Z,45.60
2023-04-11T03:30:20.306Z,41.10
2023-04-11T03:32:49.403Z,64.10
2023-04-11T03:35:20.728Z,96.70
2023-04-11T03:37:50.760Z,83.10
2023-04-11T03:40:19.237Z,68.80
2023-04-11T03:42:52.077Z,49.80
2023-04-11T03:45:23.074Z,25.80
2023-04-11T03:47:52.287Z,43.40
2023-04-11T03:50:22.478Z,30.30
2023-04-11T03:52:51.887Z,65.30
2023-04-11T03:55:21.255Z,80.30
2023-04-11T03:57:49.767Z,29.90
2023-04-11T04:00:20.771Z,26.20
2023-04-11T04:02:57.187Z,21.80
2023-04-11T04:05:26.210Z,19.50
2023-04-11T04:07:55.918Z,25.30
2023-04-11T04:10:32.057Z,21.40
2023-04-11T04:13:00.530Z,22.60
2023-04-11T04:15:36.793Z,29.20
2023-04-11T04:18:05.300Z,37.40
2023-04-11T04:21:00.011Z,41.90
2023-04-11T04:23:30.205Z,31.20
2023-04-11T04:26:13.348Z,39.20
2023-04-11T04:28:47.550Z,26.10
2023-04-11T04:31:22.622Z,31.30
2023-04-11T04:33:52.070Z,27.80
2023-04-11T04:36:25.280Z,25.60
2023-04-11T04:38:54.689Z,32.70
2023-04-11T04:41:23.910Z,38.50
2023-04-11T04:43:58.675Z,32.30
2023-04-11T04:46:44.829Z,23.00
2023-04-11T04:49:13.311Z,91.10
2023-04-11T04:51:41.784Z,47.50
2023-04-11T04:54:10.286Z,85.30
2023-04-11T04:56:38.746Z,95.70
2023-04-11T04:59:08.291Z,28.40
2023-04-11T05:01:40.280Z,37.90
2023-04-11T05:04:09.471Z,47.80
2023-04-11T05:06:46.145Z,49.70
2023-04-11T05:09:15.011Z,64.80
2023-04-11T05:11:43.767Z,20.50
2023-04-11T05:14:11.928Z,28.00
2023-04-11T05:16:42.569Z,26.40
2023-04-11T05:19:11.360Z,31.70
2023-04-11T05:21:42.759Z,26.80
2023-04-11T05:24:12.140Z,45.30
2023-04-11T05:26:40.819Z,50.80
2023-04-11T05:29:11.060Z,33.10
2023-04-11T05:31:39.274Z,39.40
2023-04-11T05:34:07.909Z,29.10
2023-04-11T05:36:37.106Z,17.50
2023-04-11T05:39:06.238Z,34.00
2023-04-11T05:41:34.405Z,29.90
2023-04-11T05:44:05.528Z,33.80
2023-04-11T05:46:36.976Z,26.90
2023-04-11T05:49:05.977Z,17.40
2023-04-11T05:51:34.462Z,16.10
2023-04-11T05:54:02.889Z,14.80
2023-04-11T05:56:31.327Z,32.60
2023-04-11T05:58:59.577Z,21.50
2023-04-11T06:01:28.801Z,20.10
2023-04-11T06:03:57.833Z,20.30
2023-04-11T06:06:27.765Z,15.90
2023-04-11T06:08:56.102Z,16.30
2023-04-11T06:11:27.546Z,15.50
2023-04-11T06:13:55.994Z,13.80
2023-04-11T06:16:24.706Z,54.90
2023-04-11T06:18:53.037Z,14.90
2023-04-11T06:21:21.361Z,17.40
2023-04-11T06:23:49.610Z,59.10
2023-04-11T06:26:18.035Z,25.10
2023-04-11T06:28:46.312Z,11.40
2023-04-11T06:31:14.724Z,36.40
2023-04-11T06:33:43.033Z,21.80
2023-04-11T06:36:11.873Z,12.10
2023-04-11T06:38:40.860Z,10.20
2023-04-11T06:41:08.985Z,10.20
2023-04-11T06:43:37.223Z,9.90
2023-04-11T06:46:06.020Z,10.00
2023-04-11T06:48:34.695Z,11.40
2023-04-11T06:51:03.114Z,11.30
2023-04-11T06:53:31.392Z,11.00
2023-04-11T06:56:00.966Z,11.50
2023-04-11T06:58:29.240Z,12.20
2023-04-11T07:00:57.722Z,16.70
2023-04-11T07:03:26.561Z,17.60
2023-04-11T07:05:55.098Z,12.50
2023-04-11T07:08:23.376Z,13.00
2023-04-11T07:10:51.681Z,11.00
2023-04-11T07:13:21.426Z,10.90
2023-04-11T07:15:49.653Z,10.20
2023-04-11T07:18:17.930Z,12.50
2023-04-11T07:20:46.741Z,10.50
2023-04-11T07:23:15.300Z,10.60
2023-04-11T07:25:45.230Z,9.60
2023-04-11T07:28:13.393Z,10.20
2023-04-11T07:30:42.721Z,11.10
2023-04-11T07:33:11.175Z,10.80
2023-04-11T07:35:39.534Z,9.30
2023-04-11T07:38:10.194Z,9.30
2023-04-11T07:40:38.578Z,8.90
2023-04-11T07:43:06.900Z,9.20
2023-04-11T07:45:36.582Z,9.50
2023-04-11T07:48:05.468Z,8.20
2023-04-11T07:50:33.729Z,8.80
2023-04-11T07:53:02.613Z,8.10
2023-04-11T07:55:30.969Z,12.00
2023-04-11T07:57:59.444Z,15.60
2023-04-11T08:00:29.031Z,15.80
2023-04-11T08:02:59.279Z,8.70
2023-04-11T08:05:28.085Z,12.50
2023-04-11T08:07:57.180Z,27.40
2023-04-11T08:10:25.782Z,8.00
2023-04-11T08:12:55.624Z,14.60
2023-04-11T08:15:23.732Z,6.90
2023-04-11T08:17:56.386Z,7.70
2023-04-11T08:20:25.190Z,7.90
2023-04-11T08:22:53.637Z,8.30
2023-04-11T08:25:25.300Z,8.20
2023-04-11T08:27:53.573Z,6.80
2023-04-11T08:30:21.809Z,6.40
2023-04-11T08:32:50.257Z,7.30
2023-04-11T08:35:18.717Z,6.50
2023-04-11T08:37:47.109Z,7.60
2023-04-11T08:40:16.705Z,7.10
2023-04-11T08:42:45.956Z,7.30
2023-04-11T08:45:14.287Z,6.50
2023-04-11T08:47:45.282Z,8.90
2023-04-11T08:50:14.153Z,6.80
2023-04-11T08:52:45.179Z,7.50
2023-04-11T08:55:13.747Z,8.10
2023-04-11T08:57:42.692Z,6.40
2023-04-11T09:00:14.600Z,10.10
2023-04-11T09:03:05.798Z,6.70
2023-04-11T09:05:35.650Z,8.80
2023-04-11T09:08:09.214Z,5.40
2023-04-11T09:10:39.881Z,6.70
2023-04-11T09:13:26.006Z,12.10
2023-04-11T09:16:12.371Z,5.20
2023-04-11T09:18:46.375Z,7.10
2023-04-11T09:21:17.126Z,6.30
2023-04-11T09:23:45.606Z,6.60
2023-04-11T09:26:29.755Z,5.80
2023-04-11T09:28:58.416Z,6.20
2023-04-11T09:31:45.140Z,6.90
2023-04-11T09:34:13.841Z,5.80
2023-04-11T09:36:42.645Z,8.00
2023-04-11T09:39:18.284Z,7.10
2023-04-11T09:41:46.773Z,9.00
2023-04-11T09:44:15.057Z,7.40
2023-04-11T09:46:59.824Z,7.10
2023-04-11T09:49:29.016Z,7.40
2023-04-11T09:51:59.755Z,7.70
2023-04-11T09:54:29.390Z,19.30
2023-04-11T09:56:59.479Z,7.50
2023-04-11T09:59:29.382Z,7.20
2023-04-11T10:01:58.994Z,10.50
2023-04-11T10:04:28.971Z,20.70
2023-04-11T10:07:09.168Z,8.10
2023-04-11T10:09:41.103Z,8.50
2023-04-11T10:12:09.446Z,7.40
2023-04-11T10:14:37.795Z,7.60
2023-04-11T10:17:23.327Z,7.00
2023-04-11T10:19:58.804Z,8.40
2023-04-11T10:22:43.546Z,8.20
2023-04-11T10:25:19.699Z,6.70
2023-04-11T10:28:04.129Z,8.00
2023-04-11T10:30:42.265Z,7.60
2023-04-11T10:33:20.506Z,7.40
2023-04-11T10:36:05.708Z,7.30
2023-04-11T10:38:52.116Z,8.70
2023-04-11T10:41:23.323Z,6.50
2023-04-11T10:43:52.579Z,6.80
2023-04-11T10:46:21.910Z,6.10
2023-04-11T10:49:00.677Z,8.10
2023-04-11T10:51:31.686Z,7.20
2023-04-11T10:54:01.527Z,5.10
2023-04-11T10:56:52.777Z,6.80
2023-04-11T10:59:34.600Z,6.00
2023-04-11T11:02:03.686Z,7.80
2023-04-11T11:04:33.571Z,5.40
2023-04-11T11:07:07.206Z,5.60
2023-04-11T11:09:35.668Z,6.50
2023-04-11T11:12:08.945Z,5.80
2023-04-11T11:14:38.390Z,5.90
2023-04-11T11:17:07.842Z,7.10
2023-04-11T11:19:36.593Z,6.10
2023-04-11T11:22:06.372Z,8.70
2023-04-11T11:24:34.700Z,7.10
2023-04-11T11:27:03.079Z,6.70
2023-04-11T11:29:38.269Z,6.70
2023-04-11T11:32:07.369Z,6.20
2023-04-11T11:34:36.269Z,7.10
2023-04-11T11:37:04.977Z,7.30
2023-04-11T11:39:34.459Z,7.10
2023-04-11T11:42:03.615Z,6.70
2023-04-11T11:44:32.226Z,7.20
2023-04-11T11:47:17.395Z,6.10
2023-04-11T11:49:51.261Z,8.10
2023-04-11T11:52:37.070Z,5.90
2023-04-11T11:55:11.292Z,6.60
2023-04-11T11:57:46.826Z,6.80
2023-04-11T12:00:23.772Z,5.70
2023-04-11T12:02:53.359Z,8.80
2023-04-11T12:05:24.983Z,5.60
2023-04-11T12:07:55.259Z,6.30
2023-04-11T12:10:23.839Z,6.00
2023-04-11T12:12:53.857Z,4.20
2023-04-11T12:15:24.546Z,4.50
2023-04-11T12:17:54.285Z,4.70
2023-04-11T12:20:24.334Z,5.90
2023-04-11T12:22:54.633Z,7.50
2023-04-11T12:25:26.137Z,7.70
2023-04-11T12:27:54.370Z,6.50
2023-04-11T12:30:22.965Z,6.70
2023-04-11T12:32:51.273Z,6.10
2023-04-11T12:35:19.633Z,5.70
2023-04-11T12:37:47.907Z,6.30
2023-04-11T12:40:16.501Z,5.70
2023-04-11T12:42:56.433Z,6.70
2023-04-11T12:45:26.403Z,5.80
2023-04-11T12:47:54.858Z,5.90
2023-04-11T12:50:24.306Z,5.70
2023-04-11T12:52:53.241Z,5.30
2023-04-11T12:55:21.942Z,5.20
2023-04-11T12:57:50.420Z,5.80
2023-04-11T13:00:19.054Z,5.90
2023-04-11T13:02:48.817Z,5.50
2023-04-11T13:05:17.971Z,5.80
2023-04-11T13:07:46.821Z,5.60
2023-04-11T13:10:16.379Z,5.70
2023-04-11T13:12:46.013Z,5.80
2023-04-11T13:15:16.900Z,5.70
2023-04-11T13:17:45.795Z,5.70
2023-04-11T13:20:14.643Z,6.70
2023-04-11T13:22:43.472Z,5.70
2023-04-11T13:25:12.662Z,5.70
2023-04-11T13:27:42.440Z,6.60
2023-04-11T13:30:11.633Z,6.20
2023-04-11T13:32:40.169Z,7.00
2023-04-11T13:35:09.243Z,5.90
2023-04-11T13:37:37.716Z,7.40
2023-04-11T13:40:11.428Z,5.90
2023-04-11T13:42:39.806Z,5.40
2023-04-11T13:45:08.868Z,6.80
2023-04-11T13:47:38.796Z,5.40
2023-04-11T13:50:09.272Z,5.50
2023-04-11T13:52:37.919Z,5.90
2023-04-11T13:55:07.070Z,6.80
2023-04-11T13:57:35.313Z,5.20
2023-04-11T14:00:11.924Z,4.50
2023-04-11T14:02:41.718Z,8.10
2023-04-11T14:05:11.671Z,12.60
2023-04-11T14:07:40.861Z,8.20
2023-04-11T14:10:09.523Z,9.90
2023-04-11T14:12:38.001Z,7.40
2023-04-11T14:15:08.014Z,9.20
2023-04-11T14:17:36.559Z,5.80
2023-04-11T14:20:07.086Z,10.10
2023-04-11T14:22:36.135Z,13.10
2023-04-11T14:25:05.821Z,32.30
2023-04-11T14:27:34.042Z,10.50
2023-04-11T14:30:02.411Z,14.30
2023-04-11T14:32:30.798Z,9.60
2023-04-11T14:35:01.973Z,14.10
2023-04-11T14:37:34.690Z,15.30
2023-04-11T14:40:08.102Z,7.30
2023-04-11T14:42:37.388Z,7.20
2023-04-11T14:45:06.631Z,8.90
2023-04-11T14:47:35.316Z,7.40
2023-04-11T14:50:03.691Z,9.00
2023-04-11T14:52:31.937Z,10.70
2023-04-11T14:55:00.190Z,10.50
2023-04-11T14:57:49.276Z,11.20
2023-04-11T15:00:22.642Z,17.20
2023-04-11T15:02:54.531Z,14.80
2023-04-11T15:05:23.832Z,10.90
2023-04-11T15:07:53.424Z,8.30
2023-04-11T15:10:24.548Z,12.50
2023-04-11T15:12:53.496Z,14.80
2023-04-11T15:15:21.889Z,11.50
2023-04-11T15:18:25.167Z,18.40
2023-04-11T15:20:54.259Z,19.00
2023-04-11T15:23:23.396Z,22.80
2023-04-11T15:26:05.422Z,17.20
2023-04-11T15:28:38.907Z,18.70
2023-04-11T15:31:09.236Z,19.70
2023-04-11T15:33:38.503Z,19.10
2023-04-11T15:36:07.439Z,17.70
2023-04-11T15:38:36.825Z,18.90
2023-04-11T15:41:05.989Z,16.00
2023-04-11T15:43:34.147Z,15.70
2023-04-11T15:46:06.869Z,17.30
2023-04-11T15:48:35.226Z,14.40
2023-04-11T15:51:10.970Z,19.70
2023-04-11T15:53:39.218Z,22.80
2023-04-11T15:56:08.426Z,17.40
2023-04-11T15:58:36.609Z,18.30
2023-04-11T16:01:05.539Z,28.50
2023-04-11T16:03:33.891Z,24.90
2023-04-11T16:06:02.857Z,30.70
2023-04-11T16:08:31.283Z,18.00
2023-04-11T16:10:59.463Z,32.80
2023-04-11T16:13:27.712Z,17.80
2023-04-11T16:15:56.382Z,14.50
2023-04-11T16:18:24.670Z,18.00
2023-04-11T16:20:52.794Z,11.10
2023-04-11T16:23:21.362Z,14.10
2023-04-11T16:25:49.663Z,24.50
2023-04-11T16:28:17.816Z,13.50
2023-04-11T16:30:46.125Z,19.60
2023-04-11T16:33:14.375Z,18.70
2023-04-11T16:35:42.711Z,17.30
2023-04-11T16:38:11.038Z,15.20
2023-04-11T16:40:39.295Z,15.20
2023-04-11T16:43:07.490Z,14.40
2023-04-11T16:45:36.026Z,17.10
2023-04-11T16:48:06.066Z,15.40
2023-04-11T16:50:34.323Z,16.60
2023-04-11T16:53:02.765Z,12.20
2023-04-11T16:55:31.056Z,15.20
2023-04-11T16:57:59.208Z,13.70
2023-04-11T17:00:29.586Z,14.50
2023-04-11T17:02:59.044Z,15.10
2023-04-11T17:05:27.532Z,14.00
2023-04-11T17:07:56.143Z,11.10
2023-04-11T17:10:24.285Z,15.80
2023-04-11T17:12:54.304Z,18.70
2023-04-11T17:15:22.582Z,21.40
2023-04-11T17:17:51.116Z,39.90
2023-04-11T17:20:21.122Z,93.00
2023-04-11T17:22:49.975Z,68.10
2023-04-11T17:25:18.457Z,37.30
2023-04-11T17:27:46.704Z,18.80
2023-04-11T17:30:14.925Z,24.20
2023-04-11T17:32:43.210Z,16.60
2023-04-11T17:35:11.465Z,17.80
2023-04-11T17:37:40.054Z,16.50
2023-04-11T17:40:12.796Z,17.00
2023-04-11T17:42:41.637Z,15.70
2023-04-11T17:45:18.115Z,15.90
2023-04-11T17:47:47.844Z,12.20
2023-04-11T17:50:18.577Z,13.70
2023-04-11T17:52:47.756Z,15.50
2023-04-11T17:55:19.128Z,11.00
2023-04-11T17:57:49.244Z,10.40
2023-04-11T18:00:23.247Z,8.80
2023-04-11T18:02:54.688Z,8.50
2023-04-11T18:05:25.848Z,8.60
2023-04-11T18:07:58.954Z,9.10
2023-04-11T18:10:29.372Z,9.30
2023-04-11T18:12:58.780Z,9.50
2023-04-11T18:15:28.167Z,10.20
2023-04-11T18:17:56.718Z,9.80
2023-04-11T18:20:25.651Z,10.60
2023-04-11T18:22:56.539Z,10.00
2023-04-11T18:25:25.097Z,9.70
2023-04-11T18:27:53.645Z,10.90
2023-04-11T18:30:22.094Z,10.10
2023-04-11T18:32:54.006Z,12.80
2023-04-11T18:35:24.302Z,12.10
2023-04-11T18:37:54.333Z,13.50
2023-04-11T18:40:22.974Z,19.30
2023-04-11T18:42:52.986Z,14.80
2023-04-11T18:45:22.726Z,13.60
2023-04-11T18:47:51.690Z,19.50
2023-04-11T18:50:20.463Z,18.30
2023-04-11T18:52:53.864Z,18.60
2023-04-11T18:55:25.394Z,21.00
2023-04-11T18:57:57.224Z,15.20
2023-04-11T19:02:57.940Z,14.30
2023-04-11T19:05:26.895Z,13.90
2023-04-11T19:07:56.308Z,15.50
2023-04-11T19:10:24.886Z,16.00
2023-04-11T19:12:53.378Z,18.10
2023-04-11T19:15:21.574Z,17.50
2023-04-11T19:17:50.014Z,14.90
2023-04-11T19:20:20.490Z,12.40
2023-04-11T19:22:48.743Z,17.50
2023-04-11T19:25:17.637Z,19.30
2023-04-11T19:27:47.354Z,13.80
2023-04-11T19:30:15.731Z,16.10
2023-04-11T19:32:46.279Z,17.00
2023-04-11T19:35:15.449Z,20.40
2023-04-11T19:37:43.730Z,26.40
2023-04-11T19:40:15.377Z,40.00
2023-04-11T19:42:45.107Z,41.90
2023-04-11T19:45:13.480Z,45.70
2023-04-11T19:47:42.252Z,41.30
2023-04-11T19:50:15.366Z,34.80
2023-04-11T19:52:44.265Z,32.30
2023-04-11T19:55:12.944Z,28.60
2023-04-11T19:57:43.798Z,32.90
2023-04-11T20:00:14.369Z,40.10
2023-04-11T20:02:46.105Z,33.30
2023-04-11T20:05:17.271Z,32.50
2023-04-11T20:07:46.761Z,30.10
2023-04-11T20:10:16.400Z,32.30
2023-04-11T20:12:45.241Z,31.80
2023-04-11T20:15:13.619Z,25.00
2023-04-11T20:17:43.221Z,20.70
2023-04-11T20:20:13.539Z,21.50
2023-04-11T20:22:44.914Z,20.10
2023-04-11T20:25:13.830Z,17.50
2023-04-11T20:27:43.367Z,21.40
2023-04-11T20:30:12.836Z,19.30
2023-04-11T20:32:42.104Z,70.20
2023-04-11T20:35:14.260Z,36.40
2023-04-11T20:37:45.532Z,62.60
2023-04-11T20:40:17.181Z,50.10
2023-04-11T20:42:49.685Z,35.60
2023-04-11T20:45:21.796Z,25.70
2023-04-11T20:47:50.495Z,29.00
2023-04-11T20:50:19.965Z,15.20
2023-04-11T20:52:52.666Z,14.00
2023-04-11T20:55:21.161Z,16.90
2023-04-11T20:57:49.801Z,17.00
2023-04-11T21:00:19.965Z,18.00
2023-04-11T21:02:53.273Z,17.00
2023-04-11T21:05:25.227Z,14.90
2023-04-11T21:07:56.307Z,15.10
2023-04-11T21:10:25.001Z,16.00
2023-04-11T21:12:54.486Z,12.70
2023-04-11T21:15:23.178Z,12.40
2023-04-11T21:17:52.529Z,15.40
2023-04-11T21:20:22.475Z,15.80
2023-04-11T21:22:55.334Z,18.30
2023-04-11T21:25:24.296Z,13.50
2023-04-11T21:27:52.688Z,14.50
2023-04-11T21:30:21.138Z,12.40
2023-04-11T21:32:49.429Z,13.60
2023-04-11T21:35:17.907Z,12.70
2023-04-11T21:37:48.934Z,17.00
2023-04-11T21:40:17.663Z,17.00
2023-04-11T21:42:46.012Z,18.80
2023-04-11T21:45:14.301Z,20.40
2023-04-11T21:47:42.732Z,12.50
2023-04-11T21:50:11.574Z,8.90
2023-04-11T21:52:39.859Z,12.00
2023-04-11T21:55:09.131Z,11.30
2023-04-11T21:57:37.738Z,10.50
2023-04-11T22:00:08.426Z,13.50
2023-04-11T22:02:43.051Z,13.10
2023-04-11T22:05:12.863Z,13.00
2023-04-11T22:07:47.446Z,11.30
2023-04-11T22:10:23.994Z,12.80
2023-04-11T22:12:54.690Z,10.50
2023-04-11T22:15:24.536Z,10.00
2023-04-11T22:17:54.684Z,13.00
2023-04-11T22:20:23.159Z,11.40
2023-04-11T22:22:51.352Z,12.30
2023-04-11T22:25:22.650Z,9.70
2023-04-11T22:27:54.958Z,9.40
2023-04-11T22:30:24.682Z,9.70
2023-04-11T22:32:54.570Z,8.40
2023-04-11T22:35:26.281Z,11.30
2023-04-11T22:37:59.333Z,10.40
2023-04-11T22:40:27.624Z,9.70
2023-04-11T22:42:55.994Z,9.40
2023-04-11T22:45:24.623Z,9.40
2023-04-11T22:48:00.073Z,12.40
2023-04-11T22:50:28.849Z,11.70
2023-04-11T22:52:57.228Z,9.60
2023-04-11T22:55:25.575Z,10.20
2023-04-11T22:57:53.868Z,9.60
2023-04-11T23:00:24.042Z,9.50
2023-04-11T23:02:52.728Z,8.40
2023-04-11T23:05:21.592Z,9.10
2023-04-11T23:07:50.238Z,7.80
2023-04-11T23:10:19.333Z,9.40
2023-04-11T23:12:48.249Z,9.50
2023-04-11T23:15:17.641Z,7.30
2023-04-11T23:17:46.283Z,8.20
2023-04-11T23:20:15.651Z,8.40
2023-04-11T23:22:44.764Z,9.80
2023-04-11T23:25:15.438Z,10.70
2023-04-11T23:27:44.756Z,10.10
2023-04-11T23:30:17.501Z,8.60
2023-04-11T23:32:46.018Z,8.60
2023-04-11T23:35:17.121Z,9.00
2023-04-11T23:37:46.033Z,16.30
2023-04-11T23:40:14.988Z,12.30
2023-04-11T23:42:43.253Z,11.70
2023-04-11T23:45:12.881Z,14.30
2023-04-11T23:47:41.389Z,11.20
2023-04-11T23:50:10.633Z,15.00
2023-04-11T23:52:39.953Z,10.70
2023-04-11T23:55:08.822Z,13.80
2023-04-11T23:57:37.202Z,11.10
